KOZA

Details ICAO KOZA (OZA)
Name OZONA MUNI
Region United States
Timezone America/Chicago (UTC-6.0)
Plans Departing 4
Arriving 4
Stats Elevation 2,381 ft / 726 m (AMSL)
Location 30.735197° -101.202201°
Runways 1
Magnetic Variation 5.697° E
Sunrise 2017-12-11 13:33:53 UTC / 2017-12-11 07:33:53 Local
Sunset 2017-12-11 23:45:25 UTC / 2017-12-11 17:45:25 Local
Advertisement - Login to hide

Runways

ID Width Length Bearing (true) Bearing (mag) Surface Threshold Offset Overrun Length
16 75 ft / 23 m 6,020 ft / 1,835 m 167.77° 162.07° Asphalt 0 ft / 0 m 0 ft / 0 m
34 75 ft / 23 m 6,020 ft / 1,835 m 347.78° 342.08° Asphalt 0 ft / 0 m 0 ft / 0 m

Map

Weather


0- 5 10 15 20 25 30 35+ Temperature / ° C

Clouds and Precipitation
Forecast for 2017-12-12 00:00 UTC. Updated 2 hours ago

Ground ~20,000 ft ~40,000 ft Winds

METAR

KOZA 112055Z AUTO 25008KT 10SM CLR 19/M05 A3027 RMK AO2

TAF

Not found

Frequencies

Unicom 122.80 MHz CTAF/UNICOM
Warning: Do not use this data for real-world aviation or navigation. No guarantee of current accuracy is given.